Pagina principale
METAR-TAF:

METAR-TAF

Aeroporti :

Aeroporto di Lamezia Terme

Lamezia Terme, Italia

latitudine: 38-54N, longitudine: 016-15E, altezza: 15 m

Osservazione

Il bollettino è stato emesso 27 minuti fa, alle 18:50 UTC
Vento 10 kt da nord-est
Temperature 24°C
Umidità 61%
Pressione 1014 hPa
Visibilità 10 km o più
Poco nuvoloso ad un'altezza di 3000 ft
Nubi sparse ad un'altezza di 5000 ft

METAR: LICA 231850Z 05010KT 9999 FEW030 SCT050 24/16 Q1014

Ora: 21:17 (19:17 UTC)

Previsione

Il bollettino è stato emesso 2 ore e 17 minuti fa, alle 17:00 UTC
Previsione valida dal 23 alle 18 UTC al 24 alle 18 UTC
Vento 5 kt da direzioni variabili
Visibilità 10 km o più
Nubi sparse ad un'altezza di 2000 ft
Evoluzione graduale
dal 24 alle 08 UTC al 24 alle 10 UTC
Vento 12 kt da ovest

TAF: LICA 231700Z 2318/2418 VRB05KT 9999 SCT020 BECMG 2408/2410 27012KT

Osservazioni e previsioni meteorologiche di più di 4000 aeroporti (messaggi METAR e TAF).

Le stazioni disponibili sono rappresentate dai dischi gialli e rossi sulla carta.

Puntare il mouse per vedere il nome della stazione.

Clicca sopra per visualizzare le osservazioni e previsioni meteorologiche.

Per cambiare la mappa : fare clic sui pulsanti verdi con una croce nera per ingrandire, il pulsante verde con un trattino per diminuire, o sulla freccia verde per le mappe adiacenti.


METAR-TAF: